Time;durP1;ratioP1;P1;durP2;ratioP2;P2;SDS_P1;SDS_P2;PMS_P1;PMS_P2;Temp;Humidity;BMP_temperature;BMP_pressure;BME280_temperature;BME280_humidity;BME280_pressure;Samples;Min_cycle;Max_cycle;Signal;HPM_P1;HPM_P2
2023/07/02 00:01:10;;;;;;;14.38;5.90;;;19.20;99.90;;;;;;6272523;22;20016;-73
2023/07/02 00:03:38;;;;;;;13.02;6.72;;;19.20;99.90;;;;;;6272844;22;20000;-74
2023/07/02 00:06:03;;;;;;;15.52;7.43;;;19.20;99.90;;;;;;6272888;22;20133;-73
2023/07/02 00:08:29;;;;;;;13.68;7.65;;;19.10;99.90;;;;;;6272729;22;20031;-74
2023/07/02 00:10:54;;;;;;;16.55;7.93;;;19.10;99.90;;;;;;6272250;22;20397;-73
2023/07/02 00:13:20;;;;;;;13.13;7.20;;;19.10;99.90;;;;;;6273305;22;20008;-73
2023/07/02 00:15:45;;;;;;;19.00;7.97;;;19.10;99.90;;;;;;6273045;22;20441;-73
2023/07/02 00:18:11;;;;;;;14.82;8.70;;;19.20;99.90;;;;;;6272346;22;20019;-73
2023/07/02 00:20:37;;;;;;;17.05;7.95;;;19.10;99.90;;;;;;6272913;22;20000;-73
2023/07/02 00:23:08;;;;;;;16.77;9.07;;;19.10;99.90;;;;;;6272185;22;20071;-73
2023/07/02 00:25:34;;;;;;;14.48;8.77;;;19.20;99.90;;;;;;6245662;22;20057;-73
2023/07/02 00:27:59;;;;;;;18.17;8.70;;;19.10;99.90;;;;;;6272417;22;20004;-73
2023/07/02 00:30:25;;;;;;;20.38;8.90;;;19.20;99.90;;;;;;6272834;22;20007;-73
2023/07/02 00:32:51;;;;;;;15.73;8.57;;;19.20;99.90;;;;;;6272420;22;20004;-73
2023/07/02 00:35:16;;;;;;;17.80;8.75;;;19.20;99.90;;;;;;6272445;22;20061;-73
2023/07/02 00:37:42;;;;;;;17.00;8.25;;;19.10;99.90;;;;;;6272446;22;19996;-73
2023/07/02 00:40:08;;;;;;;16.55;9.27;;;19.10;99.90;;;;;;6272234;22;20000;-74
2023/07/02 00:42:34;;;;;;;16.02;9.02;;;19.10;99.90;;;;;;6272550;22;20354;-74
2023/07/02 00:45:02;;;;;;;20.17;9.00;;;19.10;99.90;;;;;;6272479;22;20027;-74
2023/07/02 00:47:32;;;;;;;16.33;8.55;;;19.10;99.90;;;;;;6272410;22;20000;-73
2023/07/02 00:49:58;;;;;;;15.07;7.80;;;19.00;99.90;;;;;;6272391;22;20003;-74
2023/07/02 00:52:25;;;;;;;12.75;6.43;;;18.80;99.90;;;;;;6272073;22;20443;-74
2023/07/02 00:54:51;;;;;;;15.52;7.80;;;18.60;99.90;;;;;;6272616;22;20003;-74
2023/07/02 00:57:17;;;;;;;13.80;7.80;;;18.40;99.90;;;;;;6272679;22;20381;-74
2023/07/02 00:59:43;;;;;;;17.95;8.00;;;18.30;99.90;;;;;;6245270;22;20015;-74
2023/07/02 01:02:09;;;;;;;13.60;7.63;;;18.20;99.90;;;;;;6271803;22;20004;-73
2023/07/02 01:04:34;;;;;;;21.35;8.38;;;18.10;99.90;;;;;;6272680;22;20086;-73
2023/07/02 01:07:00;;;;;;;16.02;7.95;;;18.00;99.90;;;;;;6244692;22;20010;-74
2023/07/02 01:09:26;;;;;;;14.13;7.32;;;18.00;99.90;;;;;;6272134;22;20074;-75
2023/07/02 01:12:02;;;;;;;13.38;8.20;;;17.90;99.90;;;;;;6245413;22;20012;-74
2023/07/02 01:14:33;;;;;;;15.48;7.35;;;17.90;99.90;;;;;;6272191;22;20001;-74
2023/07/02 01:17:00;;;;;;;16.10;8.55;;;17.90;99.90;;;;;;6271831;22;19995;-74
2023/07/02 01:19:41;;;;;;;14.32;8.00;;;17.80;99.90;;;;;;6272473;22;20394;-74
2023/07/02 01:22:07;;;;;;;16.65;9.48;;;17.80;99.90;;;;;;6272158;22;20000;-74
2023/07/02 01:24:33;;;;;;;16.70;8.15;;;17.80;99.90;;;;;;6272274;22;20007;-74
2023/07/02 01:27:00;;;;;;;14.05;8.55;;;17.70;99.90;;;;;;6271977;22;20279;-74
2023/07/02 01:29:29;;;;;;;17.65;9.52;;;17.70;99.90;;;;;;6244616;22;19999;-74
2023/07/02 01:31:56;;;;;;;24.23;9.18;;;17.60;99.90;;;;;;6272022;22;20008;-74
2023/07/02 01:34:21;;;;;;;15.13;9.05;;;17.60;99.90;;;;;;6271661;22;20000;-74
2023/07/02 01:36:47;;;;;;;15.95;8.05;;;17.50;99.90;;;;;;6245259;22;20086;-74
2023/07/02 01:39:13;;;;;;;16.85;9.98;;;17.50;99.90;;;;;;6244640;22;20007;-73
2023/07/02 01:41:49;;;;;;;20.45;9.68;;;17.40;99.90;;;;;;6272488;22;20053;-73
2023/07/02 01:44:14;;;;;;;16.30;9.10;;;17.40;99.90;;;;;;6244087;22;20008;-74
2023/07/02 01:46:40;;;;;;;18.40;10.07;;;17.40;99.90;;;;;;6272237;22;20382;-74
2023/07/02 01:49:05;;;;;;;15.27;8.90;;;17.30;99.90;;;;;;6271177;22;20006;-73
2023/07/02 01:51:32;;;;;;;21.95;10.43;;;17.30;99.90;;;;;;6272293;22;20068;-74
2023/07/02 01:53:57;;;;;;;15.82;9.02;;;17.30;99.90;;;;;;6244637;22;20079;-74
2023/07/02 01:56:23;;;;;;;18.75;10.80;;;17.30;99.90;;;;;;6272322;22;20073;-73
2023/07/02 01:58:48;;;;;;;17.85;9.07;;;17.20;99.90;;;;;;6271617;22;20007;-74
2023/07/02 02:01:14;;;;;;;16.95;9.18;;;17.20;99.90;;;;;;6271666;22;20028;-74
2023/07/02 02:03:39;;;;;;;17.30;9.48;;;17.10;99.90;;;;;;6271730;22;20422;-74
2023/07/02 02:06:05;;;;;;;14.75;9.27;;;17.00;99.90;;;;;;6271667;22;20007;-74
2023/07/02 02:08:30;;;;;;;17.55;10.27;;;16.90;99.90;;;;;;6272189;22;20506;-74
2023/07/02 02:10:56;;;;;;;18.23;9.80;;;16.90;99.90;;;;;;6271420;22;20014;-74
2023/07/02 02:13:22;;;;;;;17.83;9.32;;;16.80;99.90;;;;;;6271702;22;20340;-74
2023/07/02 02:15:47;;;;;;;14.45;8.55;;;16.70;99.90;;;;;;6271883;22;20429;-74
2023/07/02 02:18:13;;;;;;;18.50;9.18;;;16.70;99.90;;;;;;6270818;22;20680;-74
2023/07/02 02:20:40;;;;;;;17.70;9.55;;;16.60;99.90;;;;;;6271606;22;20417;-73
2023/07/02 02:23:06;;;;;;;17.23;9.80;;;16.60;99.90;;;;;;6271539;22;20004;-73
2023/07/02 02:25:32;;;;;;;15.82;9.50;;;16.60;99.90;;;;;;6271732;22;20007;-73
2023/07/02 02:27:57;;;;;;;14.55;8.93;;;16.60;99.90;;;;;;6271251;22;20006;-74
2023/07/02 02:30:23;;;;;;;16.40;9.32;;;16.60;99.90;;;;;;6244802;22;20011;-73
2023/07/02 02:32:49;;;;;;;17.42;10.35;;;16.60;99.90;;;;;;6270970;22;20011;-74
2023/07/02 02:35:14;;;;;;;17.15;9.10;;;16.50;99.90;;;;;;6271464;22;20049;-74
2023/07/02 02:37:40;;;;;;;21.73;9.65;;;16.50;99.90;;;;;;6271869;22;20262;-74
2023/07/02 02:40:09;;;;;;;17.13;10.05;;;16.50;99.90;;;;;;6244182;22;20004;-71
2023/07/02 02:42:35;;;;;;;20.35;9.90;;;16.50;99.90;;;;;;6271433;22;20834;-74
2023/07/02 02:45:01;;;;;;;17.30;9.45;;;16.40;99.90;;;;;;6271077;22;20008;-75
2023/07/02 02:47:26;;;;;;;15.13;9.40;;;16.40;99.90;;;;;;6271078;22;20444;-74
2023/07/02 02:49:52;;;;;;;20.25;9.50;;;16.40;99.90;;;;;;6271603;22;20547;-76
2023/07/02 02:52:18;;;;;;;19.48;10.60;;;16.30;99.90;;;;;;6244500;22;20007;-74
2023/07/02 02:54:43;;;;;;;15.10;9.85;;;16.30;99.90;;;;;;6271889;22;20398;-74
2023/07/02 02:57:09;;;;;;;14.63;9.63;;;16.30;99.90;;;;;;6270258;22;19995;-76
2023/07/02 02:59:34;;;;;;;19.90;10.20;;;16.30;99.90;;;;;;6244382;22;20384;-74
2023/07/02 03:02:00;;;;;;;14.93;9.93;;;16.30;99.90;;;;;;6243470;22;20048;-73
2023/07/02 03:04:26;;;;;;;18.20;10.60;;;16.30;99.90;;;;;;6271329;22;20007;-74
2023/07/02 03:06:55;;;;;;;22.25;10.52;;;16.30;99.90;;;;;;6244569;22;20003;-73
2023/07/02 03:09:21;;;;;;;20.17;9.75;;;16.30;99.90;;;;;;6243996;22;20020;-74
2023/07/02 03:11:47;;;;;;;19.67;10.80;;;16.30;99.90;;;;;;6271448;22;20395;-75
2023/07/02 03:14:14;;;;;;;18.80;10.48;;;16.20;99.90;;;;;;6271210;22;20019;-74
2023/07/02 03:16:40;;;;;;;19.35;10.75;;;16.20;99.90;;;;;;6243766;22;20065;-74
2023/07/02 03:19:06;;;;;;;20.98;11.02;;;16.30;99.90;;;;;;6243687;22;20106;-74
2023/07/02 03:21:32;;;;;;;21.27;10.77;;;16.30;99.90;;;;;;6244102;22;20390;-74
2023/07/02 03:23:57;;;;;;;20.45;10.18;;;16.30;99.90;;;;;;6243684;22;20008;-77
2023/07/02 03:26:23;;;;;;;19.15;10.35;;;16.30;99.90;;;;;;6244036;22;20062;-74
2023/07/02 03:28:49;;;;;;;22.70;10.80;;;16.30;99.90;;;;;;6244239;22;20056;-76
2023/07/02 03:31:15;;;;;;;18.55;9.25;;;16.30;99.90;;;;;;6270330;22;20004;-74
2023/07/02 03:33:40;;;;;;;20.42;9.98;;;16.40;99.90;;;;;;6271578;22;20003;-76
2023/07/02 03:36:06;;;;;;;20.77;10.48;;;16.40;99.90;;;;;;6270847;22;20007;-72
2023/07/02 03:38:32;;;;;;;22.98;11.10;;;16.30;99.90;;;;;;6271437;22;20329;-74
2023/07/02 03:40:57;;;;;;;16.60;8.80;;;16.30;99.90;;;;;;6270719;22;20063;-74
2023/07/02 03:43:24;;;;;;;20.33;10.15;;;16.30;99.90;;;;;;6271345;22;20000;-74
2023/07/02 03:45:51;;;;;;;14.02;8.85;;;16.40;99.90;;;;;;6243100;22;20031;-74
2023/07/02 03:48:17;;;;;;;16.23;10.15;;;16.30;99.90;;;;;;6270747;22;20012;-74
2023/07/02 03:50:42;;;;;;;16.75;8.90;;;16.40;99.90;;;;;;6271638;22;19996;-74
2023/07/02 03:53:08;;;;;;;18.02;10.05;;;16.40;99.90;;;;;;6271143;22;20765;-75
2023/07/02 03:55:33;;;;;;;16.17;9.88;;;16.40;99.90;;;;;;6270877;22;20053;-74
2023/07/02 03:57:59;;;;;;;17.75;9.77;;;16.40;99.90;;;;;;6271086;22;20000;-74
2023/07/02 04:00:25;;;;;;;16.38;9.55;;;16.40;99.90;;;;;;6270053;22;20050;-74
2023/07/02 04:02:50;;;;;;;18.30;9.20;;;16.40;99.90;;;;;;6271239;22;20053;-75
2023/07/02 04:05:16;;;;;;;22.67;9.32;;;16.40;99.90;;;;;;6271039;22;20071;-74
2023/07/02 04:07:41;;;;;;;18.67;9.40;;;16.30;99.90;;;;;;6244849;22;20003;-74
2023/07/02 04:10:08;;;;;;;22.73;9.63;;;16.30;99.90;;;;;;6246169;22;20023;-74
2023/07/02 04:12:33;;;;;;;21.90;10.27;;;16.30;99.90;;;;;;6273190;22;20430;-74
2023/07/02 04:14:59;;;;;;;19.50;9.38;;;16.20;99.90;;;;;;6272648;22;20000;-74
2023/07/02 04:17:24;;;;;;;21.63;9.15;;;16.20;99.90;;;;;;6273350;22;20446;-74
2023/07/02 04:19:50;;;;;;;16.33;8.05;;;16.20;99.90;;;;;;6273480;22;20123;-74
2023/07/02 04:22:15;;;;;;;19.10;8.68;;;16.20;99.90;;;;;;6272847;22;20060;-75
2023/07/02 04:24:41;;;;;;;20.40;8.65;;;16.20;99.90;;;;;;6273519;22;20000;-74
2023/07/02 04:27:07;;;;;;;16.85;8.75;;;16.20;99.90;;;;;;6272950;22;20307;-74
2023/07/02 04:29:32;;;;;;;19.38;9.18;;;16.20;99.90;;;;;;6245469;22;20086;-74
2023/07/02 04:31:58;;;;;;;21.67;8.43;;;16.30;99.90;;;;;;6272644;22;20007;-74
2023/07/02 04:34:24;;;;;;;18.13;9.10;;;16.30;99.90;;;;;;6273282;22;19996;-74
2023/07/02 04:36:49;;;;;;;18.50;9.10;;;16.40;99.90;;;;;;6272886;22;20066;-74
2023/07/02 04:39:15;;;;;;;17.02;8.85;;;16.30;99.90;;;;;;6270770;22;20023;-74
2023/07/02 04:41:40;;;;;;;23.52;9.13;;;16.40;99.90;;;;;;6270695;22;20066;-74
2023/07/02 04:44:06;;;;;;;22.45;10.23;;;16.40;99.90;;;;;;6269247;22;20000;-74
2023/07/02 04:46:31;;;;;;;17.88;8.68;;;16.40;99.90;;;;;;6271901;22;20371;-74
2023/07/02 04:48:57;;;;;;;23.55;9.48;;;16.30;99.90;;;;;;6270185;22;20000;-74
2023/07/02 04:51:22;;;;;;;21.38;9.15;;;16.30;99.90;;;;;;6245036;22;20090;-74
2023/07/02 04:53:48;;;;;;;21.73;9.25;;;16.40;99.90;;;;;;6246076;22;20002;-74
2023/07/02 04:56:14;;;;;;;27.40;10.32;;;16.40;99.90;;;;;;6245630;22;20480;-74
2023/07/02 04:58:39;;;;;;;22.15;10.27;;;16.40;99.90;;;;;;6272434;22;20006;-74
2023/07/02 05:01:05;;;;;;;18.50;9.68;;;16.50;99.90;;;;;;6272403;22;20011;-74
2023/07/02 05:03:30;;;;;;;21.52;9.70;;;16.50;99.90;;;;;;6272825;22;20000;-74
2023/07/02 05:05:56;;;;;;;19.25;9.20;;;16.60;99.90;;;;;;6272468;22;20075;-74
2023/07/02 05:08:22;;;;;;;22.27;9.50;;;16.60;99.90;;;;;;6273003;22;20008;-74
2023/07/02 05:10:47;;;;;;;18.25;9.55;;;16.70;99.90;;;;;;6272929;22;20000;-74
2023/07/02 05:13:13;;;;;;;16.50;9.10;;;16.70;99.90;;;;;;6271952;22;20557;-74
2023/07/02 05:15:39;;;;;;;23.92;11.43;;;16.70;99.90;;;;;;6273091;22;20004;-74
2023/07/02 05:18:06;;;;;;;23.50;10.45;;;16.70;99.90;;;;;;6272600;22;20022;-74
2023/07/02 05:20:32;;;;;;;21.27;9.10;;;16.70;99.90;;;;;;6272482;22;20004;-74
2023/07/02 05:22:57;;;;;;;27.02;10.45;;;16.70;99.90;;;;;;6245104;22;20484;-74
2023/07/02 05:25:23;;;;;;;21.65;9.23;;;16.80;99.90;;;;;;6272873;22;20367;-74
2023/07/02 05:27:48;;;;;;;22.80;9.13;;;16.90;99.90;;;;;;6244936;22;20004;-74
2023/07/02 05:30:14;;;;;;;19.98;9.93;;;17.00;99.90;;;;;;6272500;22;20018;-74
2023/07/02 05:32:40;;;;;;;23.40;10.63;;;17.10;99.90;;;;;;6245599;22;20019;-74
2023/07/02 05:35:05;;;;;;;25.70;10.40;;;17.20;99.90;;;;;;6272412;22;19999;-73
2023/07/02 05:37:31;;;;;;;19.38;10.27;;;17.30;99.90;;;;;;6245452;22;20030;-74
2023/07/02 05:39:56;;;;;;;24.38;11.10;;;17.40;99.80;;;;;;6245257;22;20000;-74
2023/07/02 05:42:22;;;;;;;22.08;8.85;;;17.50;99.70;;;;;;6271934;22;20091;-73
2023/07/02 05:44:48;;;;;;;20.52;9.98;;;17.60;99.50;;;;;;6245594;22;20422;-74
2023/07/02 05:47:13;;;;;;;22.08;10.32;;;17.70;99.30;;;;;;6272550;22;20004;-74
2023/07/02 05:49:42;;;;;;;21.15;10.05;;;17.70;99.00;;;;;;6272568;22;20006;-74
2023/07/02 05:52:07;;;;;;;21.85;9.65;;;17.90;99.00;;;;;;6272007;22;20007;-74
2023/07/02 05:54:33;;;;;;;19.00;9.95;;;17.90;98.60;;;;;;6272642;22;20325;-74
2023/07/02 05:56:58;;;;;;;24.40;9.48;;;18.00;98.30;;;;;;6244259;22;20007;-74
2023/07/02 05:59:24;;;;;;;23.48;9.52;;;18.10;98.00;;;;;;6245444;22;20003;-74
2023/07/02 06:01:49;;;;;;;24.25;9.27;;;18.20;97.80;;;;;;6244847;22;20425;-74
2023/07/02 06:04:15;;;;;;;24.90;10.07;;;18.20;97.60;;;;;;6271868;22;20000;-74
2023/07/02 06:06:41;;;;;;;20.25;8.88;;;18.30;97.50;;;;;;6245119;22;20111;-73
2023/07/02 06:09:06;;;;;;;22.63;10.23;;;18.30;97.40;;;;;;6244735;22;20090;-74
2023/07/02 06:11:32;;;;;;;18.42;8.57;;;18.30;97.20;;;;;;6271784;22;20075;-74
2023/07/02 06:13:58;;;;;;;19.08;8.63;;;18.40;97.00;;;;;;6244509;22;20014;-74
2023/07/02 06:16:23;;;;;;;23.98;9.93;;;18.40;96.90;;;;;;6245084;22;20004;-74
2023/07/02 06:18:49;;;;;;;23.73;9.90;;;18.40;96.80;;;;;;6271640;22;20002;-74
2023/07/02 06:21:15;;;;;;;18.42;10.05;;;18.50;96.60;;;;;;6270831;22;20405;-74
2023/07/02 06:23:42;;;;;;;23.30;9.07;;;18.60;96.70;;;;;;6271369;22;20465;-74
2023/07/02 06:26:07;;;;;;;23.25;8.40;;;18.70;96.20;;;;;;6269821;22;20000;-74
2023/07/02 06:28:33;;;;;;;16.77;9.70;;;18.70;95.90;;;;;;6271866;22;20004;-74
2023/07/02 06:30:59;;;;;;;19.65;8.25;;;18.80;95.80;;;;;;6244308;22;20011;-73
2023/07/02 06:33:24;;;;;;;18.52;8.02;;;18.80;95.40;;;;;;6271782;22;20011;-73
2023/07/02 06:35:50;;;;;;;19.27;8.32;;;18.80;95.30;;;;;;6244943;22;20031;-74
2023/07/02 06:38:15;;;;;;;18.38;8.85;;;18.90;95.20;;;;;;6244677;22;19999;-73
2023/07/02 06:40:41;;;;;;;18.25;8.80;;;18.90;95.00;;;;;;6271365;22;20003;-74
2023/07/02 06:43:06;;;;;;;25.45;8.85;;;18.90;94.90;;;;;;6271702;22;20003;-74
2023/07/02 06:45:32;;;;;;;18.77;8.50;;;18.90;94.80;;;;;;6271934;22;20000;-74
2023/07/02 06:47:58;;;;;;;20.90;8.75;;;19.00;94.70;;;;;;6271419;22;20400;-74
2023/07/02 06:50:23;;;;;;;15.70;7.25;;;19.00;94.70;;;;;;6271735;22;20031;-74
2023/07/02 06:52:49;;;;;;;18.73;7.97;;;19.10;94.70;;;;;;6271627;22;20409;-74
2023/07/02 06:55:15;;;;;;;20.77;7.93;;;19.20;94.50;;;;;;6270774;22;20053;-74
2023/07/02 06:57:45;;;;;;;16.40;8.20;;;19.20;94.30;;;;;;6271916;22;20264;-74
2023/07/02 07:00:12;;;;;;;24.45;7.65;;;19.30;94.00;;;;;;6271264;22;20023;-74
2023/07/02 07:02:38;;;;;;;18.40;8.45;;;19.30;93.90;;;;;;6271669;22;19992;-74
2023/07/02 07:05:04;;;;;;;20.05;8.32;;;19.40;93.70;;;;;;6244338;22;20044;-74
2023/07/02 07:07:29;;;;;;;20.73;7.88;;;19.40;93.60;;;;;;6244308;22;20000;-74
2023/07/02 07:09:55;;;;;;;20.60;8.90;;;19.60;93.50;;;;;;6270968;22;20000;-74
2023/07/02 07:12:21;;;;;;;15.30;7.15;;;19.70;93.40;;;;;;6244237;22;20065;-73
2023/07/02 07:14:47;;;;;;;13.90;7.45;;;19.70;93.10;;;;;;6272046;22;20022;-74
2023/07/02 07:17:12;;;;;;;13.75;7.30;;;19.70;93.10;;;;;;6271382;22;20330;-74
2023/07/02 07:19:38;;;;;;;15.07;7.90;;;19.80;92.70;;;;;;6271701;22;20117;-74
2023/07/02 07:22:03;;;;;;;17.55;6.72;;;19.80;92.60;;;;;;6271287;22;20309;-74
2023/07/02 07:24:29;;;;;;;15.85;6.75;;;19.90;92.50;;;;;;6271149;22;20003;-74
2023/07/02 07:26:55;;;;;;;10.02;6.18;;;19.80;92.00;;;;;;6271312;22;20102;-73
2023/07/02 07:29:22;;;;;;;15.35;6.63;;;19.70;91.60;;;;;;6271904;22;20011;-74
2023/07/02 07:31:47;;;;;;;14.07;7.20;;;19.60;91.50;;;;;;6244436;22;20030;-74
2023/07/02 07:34:13;;;;;;;14.60;6.32;;;19.50;91.60;;;;;;6271309;22;20725;-74
2023/07/02 07:36:38;;;;;;;14.07;7.15;;;19.50;91.70;;;;;;6270806;22;20015;-73
2023/07/02 07:39:04;;;;;;;18.92;6.75;;;19.60;91.80;;;;;;6271327;22;20004;-74
2023/07/02 07:41:30;;;;;;;14.65;6.70;;;19.70;91.70;;;;;;6244224;22;20018;-74
2023/07/02 07:43:55;;;;;;;16.30;7.93;;;19.70;92.10;;;;;;6272491;22;20007;-74
2023/07/02 07:46:21;;;;;;;15.00;6.90;;;19.70;92.10;;;;;;6273537;22;20004;-74
2023/07/02 07:48:46;;;;;;;11.10;6.53;;;19.80;91.70;;;;;;6273641;22;20003;-74
2023/07/02 07:51:12;;;;;;;13.23;6.55;;;19.90;91.40;;;;;;6272342;22;20840;-73
2023/07/02 07:53:39;;;;;;;14.20;7.03;;;20.00;91.20;;;;;;6273524;22;20006;-74
2023/07/02 07:56:05;;;;;;;19.63;6.70;;;20.10;91.00;;;;;;6245919;22;20499;-74
2023/07/02 07:58:32;;;;;;;15.98;6.85;;;20.10;90.70;;;;;;6273583;22;20333;-74
2023/07/02 08:00:58;;;;;;;16.65;7.15;;;20.30;90.90;;;;;;6272538;22;20008;-75
2023/07/02 08:03:23;;;;;;;13.88;6.57;;;20.30;90.70;;;;;;6273521;22;20075;-74
2023/07/02 08:05:49;;;;;;;11.10;6.75;;;20.30;90.30;;;;;;6272866;22;20034;-73
2023/07/02 08:08:14;;;;;;;14.50;6.10;;;20.20;90.10;;;;;;6273045;22;20000;-74
2023/07/02 08:10:40;;;;;;;16.13;7.10;;;20.20;90.30;;;;;;6273210;22;20207;-73
2023/07/02 08:13:07;;;;;;;13.95;6.95;;;20.20;90.20;;;;;;6272857;22;20294;-74
2023/07/02 08:15:34;;;;;;;10.48;6.70;;;20.30;90.20;;;;;;6273483;22;20055;-73
2023/07/02 08:18:00;;;;;;;12.30;6.65;;;20.40;90.20;;;;;;6272908;22;19996;-73
2023/07/02 08:20:25;;;;;;;15.15;6.20;;;20.60;90.00;;;;;;6272539;22;20354;-74
2023/07/02 08:22:51;;;;;;;12.88;6.93;;;20.50;88.20;;;;;;6273332;22;20011;-74
2023/07/02 08:25:18;;;;;;;14.27;5.65;;;20.40;88.20;;;;;;6272609;22;20037;-74
2023/07/02 08:27:44;;;;;;;11.23;5.90;;;20.30;88.50;;;;;;6273336;22;20003;-74
2023/07/02 08:30:10;;;;;;;11.95;6.68;;;20.30;88.20;;;;;;6272657;22;19999;-75
2023/07/02 08:32:35;;;;;;;11.50;5.68;;;20.30;87.40;;;;;;6272958;22;20004;-74
2023/07/02 08:35:01;;;;;;;11.52;6.43;;;20.30;86.80;;;;;;6272155;22;20087;-74
2023/07/02 08:37:27;;;;;;;11.35;5.78;;;20.30;85.90;;;;;;6273201;22;20106;-74
2023/07/02 08:39:52;;;;;;;14.60;5.50;;;20.30;85.50;;;;;;6272979;22;19996;-73
2023/07/02 08:42:19;;;;;;;9.45;5.75;;;20.30;85.60;;;;;;6245922;22;20007;-74
2023/07/02 08:44:48;;;;;;;11.27;6.25;;;20.30;85.10;;;;;;6273222;22;20074;-74
2023/07/02 08:47:14;;;;;;;11.80;6.38;;;20.40;84.70;;;;;;6272821;22;20066;-74
2023/07/02 08:49:41;;;;;;;15.90;6.32;;;20.40;84.40;;;;;;6272603;22;20006;-73
2023/07/02 08:52:07;;;;;;;10.43;4.80;;;20.40;83.60;;;;;;6272642;22;20087;-73
2023/07/02 08:54:33;;;;;;;14.40;5.60;;;20.40;83.50;;;;;;6272466;22;20026;-73
2023/07/02 08:57:00;;;;;;;11.00;5.85;;;20.40;83.30;;;;;;6245174;22;20049;-74
2023/07/02 08:59:26;;;;;;;14.18;5.10;;;20.40;83.40;;;;;;6272833;22;20056;-74
2023/07/02 09:01:52;;;;;;;9.98;5.57;;;20.40;83.20;;;;;;6272556;22;20375;-74
2023/07/02 09:04:25;;;;;;;13.18;6.65;;;20.70;82.60;;;;;;6272204;22;20000;-74
2023/07/02 09:07:08;;;;;;;12.88;5.55;;;20.90;82.00;;;;;;6272858;22;20379;-73
2023/07/02 09:09:45;;;;;;;8.27;4.32;;;20.90;82.30;;;;;;6272957;22;20386;-73
2023/07/02 09:12:34;;;;;;;11.95;4.80;;;21.00;81.20;;;;;;6245306;22;20016;-73
2023/07/02 09:15:06;;;;;;;11.60;5.40;;;21.00;80.20;;;;;;6272370;22;20466;-74
2023/07/02 09:17:36;;;;;;;8.93;5.43;;;20.90;79.50;;;;;;6272826;22;20006;-74
2023/07/02 09:20:06;;;;;;;11.43;5.30;;;20.80;78.60;;;;;;6271774;22;20011;-73
2023/07/02 09:22:32;;;;;;;8.52;5.30;;;20.80;77.30;;;;;;6272893;22;20004;-73
2023/07/02 09:24:59;;;;;;;8.60;5.05;;;20.90;76.60;;;;;;6272428;22;20129;-73
2023/07/02 09:27:38;;;;;;;8.73;4.95;;;21.00;76.50;;;;;;6272794;22;20452;-73
2023/07/02 09:30:15;;;;;;;10.82;5.93;;;21.00;76.90;;;;;;6244953;22;20018;-74
2023/07/02 09:32:43;;;;;;;11.90;5.20;;;21.00;76.60;;;;;;6272272;22;20038;-74
2023/07/02 09:35:08;;;;;;;11.30;5.20;;;20.90;76.10;;;;;;6271960;22;20010;-74
2023/07/02 09:37:35;;;;;;;10.18;5.32;;;21.00;76.30;;;;;;6272581;22;20428;-74
2023/07/02 09:40:01;;;;;;;10.60;5.50;;;21.20;75.70;;;;;;6272180;22;19992;-74
2023/07/02 09:42:28;;;;;;;10.48;4.22;;;21.20;75.10;;;;;;6272376;22;20003;-74
2023/07/02 09:44:58;;;;;;;6.80;4.47;;;21.10;75.30;;;;;;6244828;22;20382;-74
2023/07/02 09:47:25;;;;;;;9.55;4.63;;;20.90;74.70;;;;;;6271943;22;20405;-74
2023/07/02 09:49:57;;;;;;;11.13;5.07;;;20.70;74.10;;;;;;6272289;22;20010;-74
2023/07/02 09:52:23;;;;;;;6.35;3.95;;;20.60;73.40;;;;;;6272275;22;20095;-75
2023/07/02 09:54:49;;;;;;;13.27;5.00;;;20.60;73.60;;;;;;6272450;22;20019;-74
2023/07/02 09:57:15;;;;;;;14.10;5.47;;;20.70;73.10;;;;;;6244888;22;20004;-74
2023/07/02 09:59:41;;;;;;;9.48;5.28;;;20.70;72.80;;;;;;6272304;22;20010;-74
2023/07/02 10:02:09;;;;;;;8.18;4.82;;;20.90;73.50;;;;;;6271413;22;20003;-74
2023/07/02 10:04:42;;;;;;;9.50;4.40;;;21.00;73.10;;;;;;6272130;22;20004;-74
2023/07/02 10:07:08;;;;;;;8.57;4.80;;;21.10;72.90;;;;;;6244441;22;20079;-74
2023/07/02 10:09:38;;;;;;;6.53;4.32;;;21.00;72.60;;;;;;6272502;22;20011;-74
2023/07/02 10:12:24;;;;;;;7.25;4.35;;;21.00;72.80;;;;;;6271821;22;20082;-74
2023/07/02 10:14:52;;;;;;;6.65;4.30;;;20.90;71.80;;;;;;6272394;22;19992;-74
2023/07/02 10:17:30;;;;;;;6.93;4.15;;;20.70;71.60;;;;;;6271383;22;19995;-73
2023/07/02 10:20:13;;;;;;;9.27;4.43;;;20.70;72.10;;;;;;6271654;22;20076;-73
2023/07/02 10:22:53;;;;;;;6.63;3.95;;;20.60;71.20;;;;;;6245202;22;20384;-74
2023/07/02 10:25:27;;;;;;;8.60;3.97;;;20.50;70.70;;;;;;6244977;22;20058;-74
2023/07/02 10:27:52;;;;;;;6.55;4.10;;;20.40;70.60;;;;;;6272186;22;20000;-73
2023/07/02 10:30:18;;;;;;;7.25;3.85;;;20.50;71.20;;;;;;6271842;22;20006;-73
2023/07/02 10:32:44;;;;;;;9.23;4.57;;;20.60;71.80;;;;;;6271575;22;20310;-73
2023/07/02 10:35:17;;;;;;;10.23;3.85;;;20.80;71.60;;;;;;6271594;22;20000;-73
2023/07/02 10:37:43;;;;;;;8.32;4.25;;;21.10;72.20;;;;;;6272094;22;20000;-73
2023/07/02 10:40:09;;;;;;;7.55;4.00;;;21.20;70.80;;;;;;6271819;22;20635;-74
2023/07/02 10:42:48;;;;;;;6.15;3.70;;;21.30;70.00;;;;;;6245025;22;20031;-73
2023/07/02 10:45:15;;;;;;;7.18;4.00;;;21.30;69.40;;;;;;6271535;22;20011;-74
2023/07/02 10:47:41;;;;;;;9.75;4.43;;;21.30;69.30;;;;;;6272363;22;20099;-73
2023/07/02 10:50:19;;;;;;;5.15;3.53;;;21.40;69.10;;;;;;6271639;22;20007;-74
2023/07/02 10:52:46;;;;;;;7.18;3.83;;;21.50;69.90;;;;;;6272071;22;20007;-73
2023/07/02 10:55:23;;;;;;;7.80;3.92;;;21.60;69.30;;;;;;6271502;22;19996;-73
2023/07/02 10:57:53;;;;;;;6.60;4.22;;;21.80;69.10;;;;;;6271961;22;20004;-74
2023/07/02 11:00:19;;;;;;;7.63;4.07;;;21.90;68.30;;;;;;6244025;22;20040;-73
2023/07/02 11:02:45;;;;;;;7.55;3.78;;;21.80;67.60;;;;;;6272145;22;20447;-73
2023/07/02 11:05:14;;;;;;;6.47;3.75;;;21.70;67.60;;;;;;6244477;22;20031;-74
2023/07/02 11:07:41;;;;;;;7.25;4.13;;;21.70;67.90;;;;;;6272067;22;20031;-74
2023/07/02 11:10:08;;;;;;;6.07;3.85;;;21.60;67.80;;;;;;6271634;22;20027;-73
2023/07/02 11:12:34;;;;;;;7.38;3.58;;;21.60;67.80;;;;;;6271611;22;20372;-74
2023/07/02 11:15:13;;;;;;;7.60;3.88;;;21.70;67.80;;;;;;6270893;22;20041;-73
2023/07/02 11:17:41;;;;;;;8.75;4.28;;;21.70;67.30;;;;;;6272226;22;20022;-73
2023/07/02 11:20:08;;;;;;;6.93;3.72;;;21.70;67.30;;;;;;6273750;22;20004;-74
2023/07/02 11:22:35;;;;;;;5.95;3.88;;;21.80;67.40;;;;;;6273792;22;19999;-74
2023/07/02 11:25:11;;;;;;;4.57;3.40;;;21.80;66.70;;;;;;6273585;22;20000;-73
2023/07/02 11:27:37;;;;;;;5.10;3.55;;;21.80;66.70;;;;;;6274102;22;20003;-74
2023/07/02 11:30:03;;;;;;;7.97;3.53;;;21.90;67.10;;;;;;6272981;22;20451;-74
2023/07/02 11:32:28;;;;;;;7.53;4.15;;;21.90;66.40;;;;;;6273675;22;20032;-73
2023/07/02 11:34:54;;;;;;;6.78;3.75;;;21.90;66.60;;;;;;6246086;22;20031;-73
2023/07/02 11:37:20;;;;;;;5.38;3.45;;;22.10;65.90;;;;;;6273705;22;19996;-74
2023/07/02 11:39:46;;;;;;;4.80;3.30;;;22.20;65.80;;;;;;6246727;22;20003;-73
2023/07/02 11:42:11;;;;;;;7.53;3.63;;;22.40;65.60;;;;;;6273432;22;20057;-73
2023/07/02 11:44:37;;;;;;;8.38;3.22;;;22.50;64.90;;;;;;6273074;22;20010;-73
2023/07/02 11:47:03;;;;;;;6.10;3.33;;;22.70;65.40;;;;;;6273472;22;20365;-74
2023/07/02 11:49:29;;;;;;;5.50;3.45;;;22.70;64.70;;;;;;6273514;22;20054;-73
2023/07/02 11:51:54;;;;;;;6.05;3.95;;;22.70;63.90;;;;;;6273381;22;20004;-74
2023/07/02 11:54:20;;;;;;;7.57;3.88;;;22.60;63.80;;;;;;6273511;22;20083;-74
2023/07/02 11:56:46;;;;;;;6.38;3.30;;;22.40;63.80;;;;;;6273593;22;20007;-74
2023/07/02 11:59:11;;;;;;;5.80;3.38;;;22.40;63.40;;;;;;6272301;22;20374;-74
2023/07/02 12:01:37;;;;;;;9.57;4.03;;;22.20;62.50;;;;;;6273171;22;20019;-74
2023/07/02 12:04:05;;;;;;;8.93;3.90;;;22.00;61.70;;;;;;6273163;22;20000;-73
2023/07/02 12:06:31;;;;;;;5.72;3.10;;;21.90;62.70;;;;;;6246110;22;20054;-74
2023/07/02 12:08:56;;;;;;;6.55;3.25;;;21.90;62.80;;;;;;6273266;22;19996;-73
2023/07/02 12:11:22;;;;;;;6.55;3.63;;;21.90;63.20;;;;;;6273196;22;20007;-74
2023/07/02 12:13:47;;;;;;;7.38;3.83;;;22.00;63.40;;;;;;6273385;22;20000;-74
2023/07/02 12:16:13;;;;;;;4.80;3.00;;;22.10;63.40;;;;;;6272929;22;20528;-73
2023/07/02 12:18:38;;;;;;;6.85;3.60;;;22.30;63.60;;;;;;6273403;22;20004;-74
2023/07/02 12:21:04;;;;;;;4.85;3.05;;;22.50;63.10;;;;;;6273030;22;20057;-74
2023/07/02 12:23:30;;;;;;;6.15;3.80;;;22.60;62.70;;;;;;6273966;22;20004;-74
2023/07/02 12:25:55;;;;;;;8.20;4.05;;;22.70;61.90;;;;;;6274740;22;20003;-74
2023/07/02 12:28:21;;;;;;;6.03;3.30;;;22.80;61.30;;;;;;6274461;22;20378;-74
2023/07/02 12:30:46;;;;;;;5.78;2.83;;;22.70;61.40;;;;;;6274033;22;20078;-74
2023/07/02 12:33:12;;;;;;;6.22;3.63;;;22.60;61.40;;;;;;6272864;22;20168;-74
2023/07/02 12:35:38;;;;;;;5.68;3.08;;;22.50;61.80;;;;;;6245750;22;20019;-74